sensor_id;sensor_type;location;lat;lon;timestamp;pressure;altitude;pressure_sealevel;temperature;humidity
41078;BME280;26823;42.662;23.352;2024-01-27T00:01:13;156878.47;;;2.93;66.55
41078;BME280;26823;42.662;23.352;2024-01-27T00:03:39;156895.94;;;3.00;66.01
41078;BME280;26823;42.662;23.352;2024-01-27T00:06:04;156909.34;;;3.05;65.46
41078;BME280;26823;42.662;23.352;2024-01-27T00:08:30;156911.97;;;3.06;65.38
41078;BME280;26823;42.662;23.352;2024-01-27T00:10:55;156887.88;;;2.97;65.63
41078;BME280;26823;42.662;23.352;2024-01-27T00:13:21;156901.25;;;3.02;65.35
41078;BME280;26823;42.662;23.352;2024-01-27T00:15:46;156886.53;;;2.97;65.67
41078;BME280;26823;42.662;23.352;2024-01-27T00:18:12;156894.56;;;3.00;65.75
41078;BME280;26823;42.662;23.352;2024-01-27T00:20:37;156898.56;;;3.01;65.18
41078;BME280;26823;42.662;23.352;2024-01-27T00:23:03;156885.19;;;2.96;65.43
41078;BME280;26823;42.662;23.352;2024-01-27T00:25:29;156907.97;;;3.05;65.13
41078;BME280;26823;42.662;23.352;2024-01-27T00:27:54;156921.38;;;3.10;64.46
41078;BME280;26823;42.662;23.352;2024-01-27T00:30:19;156910.66;;;3.06;65.00
41078;BME280;26823;42.662;23.352;2024-01-27T00:32:45;156906.66;;;3.04;65.52
41078;BME280;26823;42.662;23.352;2024-01-27T00:35:10;156878.47;;;2.93;66.34
41078;BME280;26823;42.662;23.352;2024-01-27T00:37:40;156933.44;;;3.15;66.06
41078;BME280;26823;42.662;23.352;2024-01-27T00:40:08;156933.44;;;3.15;65.38
41078;BME280;26823;42.662;23.352;2024-01-27T00:42:34;156925.38;;;3.12;65.27
41078;BME280;26823;42.662;23.352;2024-01-27T00:45:00;156874.47;;;2.92;64.45
41078;BME280;26823;42.662;23.352;2024-01-27T00:47:25;156858.38;;;2.86;65.26
41078;BME280;26823;42.662;23.352;2024-01-27T00:49:50;156932.13;;;3.14;65.17
41078;BME280;26823;42.662;23.352;2024-01-27T00:52:16;156950.84;;;3.21;64.68
41078;BME280;26823;42.662;23.352;2024-01-27T00:54:41;156929.44;;;3.13;64.69
41078;BME280;26823;42.662;23.352;2024-01-27T00:57:07;156933.44;;;3.15;64.83
41078;BME280;26823;42.662;23.352;2024-01-27T00:59:32;156954.88;;;3.23;64.71
41078;BME280;26823;42.662;23.352;2024-01-27T01:01:58;156952.22;;;3.22;63.86
41078;BME280;26823;42.662;23.352;2024-01-27T01:04:23;156962.94;;;3.26;65.65
41078;BME280;26823;42.662;23.352;2024-01-27T01:06:48;156965.63;;;3.27;64.95
41078;BME280;26823;42.662;23.352;2024-01-27T01:09:14;156956.22;;;3.23;64.30
41078;BME280;26823;42.662;23.352;2024-01-27T01:11:39;156952.22;;;3.22;64.97
41078;BME280;26823;42.662;23.352;2024-01-27T01:14:05;156970.94;;;3.29;65.99
41078;BME280;26823;42.662;23.352;2024-01-27T01:16:30;156983.03;;;3.34;65.57
41078;BME280;26823;42.662;23.352;2024-01-27T01:18:55;156968.25;;;3.28;65.54
41078;BME280;26823;42.662;23.352;2024-01-27T01:21:21;156966.94;;;3.28;65.46
41078;BME280;26823;42.662;23.352;2024-01-27T01:23:47;156984.34;;;3.34;66.21
41078;BME280;26823;42.662;23.352;2024-01-27T01:26:12;156995.13;;;3.38;65.67
41078;BME280;26823;42.662;23.352;2024-01-27T01:28:37;157004.47;;;3.42;66.15
41078;BME280;26823;42.662;23.352;2024-01-27T01:31:06;157001.81;;;3.41;65.36
41078;BME280;26823;42.662;23.352;2024-01-27T01:33:31;157012.53;;;3.45;66.19
41078;BME280;26823;42.662;23.352;2024-01-27T01:35:57;157016.53;;;3.47;65.69
41078;BME280;26823;42.662;23.352;2024-01-27T01:38:22;157031.31;;;3.52;65.47
41078;BME280;26823;42.662;23.352;2024-01-27T01:40:47;157024.63;;;3.50;65.50
41078;BME280;26823;42.662;23.352;2024-01-27T01:43:13;157042.03;;;3.56;64.48
41078;BME280;26823;42.662;23.352;2024-01-27T01:45:38;157043.34;;;3.57;65.31
41078;BME280;26823;42.662;23.352;2024-01-27T01:48:05;157042.03;;;3.56;64.23
41078;BME280;26823;42.662;23.352;2024-01-27T01:50:31;157048.72;;;3.59;63.57
41078;BME280;26823;42.662;23.352;2024-01-27T01:52:57;157050.03;;;3.59;63.54
41078;BME280;26823;42.662;23.352;2024-01-27T01:55:23;157023.25;;;3.49;63.41
41078;BME280;26823;42.662;23.352;2024-01-27T01:57:49;157031.31;;;3.52;63.45
41078;BME280;26823;42.662;23.352;2024-01-27T02:00:16;157072.84;;;3.68;63.25
41078;BME280;26823;42.662;23.352;2024-01-27T02:02:45;157083.59;;;3.72;63.11
41078;BME280;26823;42.662;23.352;2024-01-27T02:05:12;157076.84;;;3.70;63.15
41078;BME280;26823;42.662;23.352;2024-01-27T02:07:38;157082.25;;;3.72;63.19
41078;BME280;26823;42.662;23.352;2024-01-27T02:10:03;157046.03;;;3.58;63.05
41078;BME280;26823;42.662;23.352;2024-01-27T02:12:30;157088.94;;;3.74;62.28
41078;BME280;26823;42.662;23.352;2024-01-27T02:14:55;157091.63;;;3.75;62.82
41078;BME280;26823;42.662;23.352;2024-01-27T02:17:21;157094.31;;;3.77;62.34
41078;BME280;26823;42.662;23.352;2024-01-27T02:19:46;157102.34;;;3.80;61.99
41078;BME280;26823;42.662;23.352;2024-01-27T02:22:12;157109.03;;;3.82;61.74
41078;BME280;26823;42.662;23.352;2024-01-27T02:24:37;157099.66;;;3.79;61.39
41078;BME280;26823;42.662;23.352;2024-01-27T02:27:02;157080.91;;;3.71;60.84
41078;BME280;26823;42.662;23.352;2024-01-27T02:29:28;157091.63;;;3.75;61.09
41078;BME280;26823;42.662;23.352;2024-01-27T02:31:54;157082.25;;;3.72;60.11
41078;BME280;26823;42.662;23.352;2024-01-27T02:34:20;157084.94;;;3.73;59.43
41078;BME280;26823;42.662;23.352;2024-01-27T02:36:45;157095.63;;;3.77;59.67
41078;BME280;26823;42.662;23.352;2024-01-27T02:39:10;157092.94;;;3.76;58.76
41078;BME280;26823;42.662;23.352;2024-01-27T02:41:36;157072.84;;;3.68;59.69
41078;BME280;26823;42.662;23.352;2024-01-27T02:44:07;157105.03;;;3.81;59.43
41078;BME280;26823;42.662;23.352;2024-01-27T02:46:32;157119.81;;;3.86;59.63
41078;BME280;26823;42.662;23.352;2024-01-27T02:48:58;157087.63;;;3.74;59.96
41078;BME280;26823;42.662;23.352;2024-01-27T02:51:23;157099.66;;;3.79;61.55
41078;BME280;26823;42.662;23.352;2024-01-27T02:53:49;157097.00;;;3.78;61.43
41078;BME280;26823;42.662;23.352;2024-01-27T02:56:16;157088.94;;;3.74;60.80
41078;BME280;26823;42.662;23.352;2024-01-27T02:58:42;157080.91;;;3.71;60.76
41078;BME280;26823;42.662;23.352;2024-01-27T03:01:07;157080.91;;;3.71;61.40
41078;BME280;26823;42.662;23.352;2024-01-27T03:03:33;156940.16;;;3.17;64.74
41078;BME280;26823;42.662;23.352;2024-01-27T03:05:58;156804.81;;;2.65;66.97
41078;BME280;26823;42.662;23.352;2024-01-27T03:08:24;156747.19;;;2.43;68.08
41078;BME280;26823;42.662;23.352;2024-01-27T03:10:50;156696.31;;;2.23;69.59
41078;BME280;26823;42.662;23.352;2024-01-27T03:13:15;156696.31;;;2.23;70.18
41078;BME280;26823;42.662;23.352;2024-01-27T03:15:41;156654.75;;;2.07;70.51
41078;BME280;26823;42.662;23.352;2024-01-27T03:18:08;156634.69;;;2.00;71.64
41078;BME280;26823;42.662;23.352;2024-01-27T03:20:34;156648.06;;;2.05;71.24
41078;BME280;26823;42.662;23.352;2024-01-27T03:22:59;156662.81;;;2.10;72.03
41078;BME280;26823;42.662;23.352;2024-01-27T03:25:25;156630.69;;;1.98;70.74
41078;BME280;26823;42.662;23.352;2024-01-27T03:27:51;156636.06;;;2.00;70.17
41078;BME280;26823;42.662;23.352;2024-01-27T03:30:17;156749.88;;;2.44;68.66
41078;BME280;26823;42.662;23.352;2024-01-27T03:32:42;156823.56;;;2.72;68.35
41078;BME280;26823;42.662;23.352;2024-01-27T03:35:08;156840.97;;;2.79;67.97
41078;BME280;26823;42.662;23.352;2024-01-27T03:37:33;156914.66;;;3.07;68.54
41078;BME280;26823;42.662;23.352;2024-01-27T03:40:00;156933.44;;;3.15;69.70
41078;BME280;26823;42.662;23.352;2024-01-27T03:42:25;157003.13;;;3.41;69.67
41078;BME280;26823;42.662;23.352;2024-01-27T03:44:51;157051.41;;;3.60;69.49
41078;BME280;26823;42.662;23.352;2024-01-27T03:47:17;157036.63;;;3.54;71.06
41078;BME280;26823;42.662;23.352;2024-01-27T03:49:42;157074.22;;;3.69;71.63
41078;BME280;26823;42.662;23.352;2024-01-27T03:52:08;157111.75;;;3.83;71.54
41078;BME280;26823;42.662;23.352;2024-01-27T03:54:33;157110.41;;;3.83;72.84
41078;BME280;26823;42.662;23.352;2024-01-27T03:56:59;157110.41;;;3.83;72.55
41078;BME280;26823;42.662;23.352;2024-01-27T03:59:24;157097.00;;;3.78;73.78
41078;BME280;26823;42.662;23.352;2024-01-27T04:01:50;157080.91;;;3.71;74.54
41078;BME280;26823;42.662;23.352;2024-01-27T04:04:15;157126.53;;;3.89;75.29
41078;BME280;26823;42.662;23.352;2024-01-27T04:06:41;157133.22;;;3.91;75.18
41078;BME280;26823;42.662;23.352;2024-01-27T04:09:06;157135.88;;;3.92;75.74
41078;BME280;26823;42.662;23.352;2024-01-27T04:11:36;157134.53;;;3.92;76.14
41078;BME280;26823;42.662;23.352;2024-01-27T04:14:03;157092.94;;;3.76;75.29
41078;BME280;26823;42.662;23.352;2024-01-27T04:16:28;157122.47;;;3.87;75.14
41078;BME280;26823;42.662;23.352;2024-01-27T04:18:54;157107.72;;;3.82;76.17
41078;BME280;26823;42.662;23.352;2024-01-27T04:21:19;157118.44;;;3.86;76.08
41078;BME280;26823;42.662;23.352;2024-01-27T04:23:45;157115.75;;;3.85;75.97
41078;BME280;26823;42.662;23.352;2024-01-27T04:26:10;157141.25;;;3.95;75.93
41078;BME280;26823;42.662;23.352;2024-01-27T04:28:36;157127.84;;;3.89;75.67
41078;BME280;26823;42.662;23.352;2024-01-27T04:31:02;157094.31;;;3.77;76.14
41078;BME280;26823;42.662;23.352;2024-01-27T04:33:28;157142.56;;;3.95;76.65
41078;BME280;26823;42.662;23.352;2024-01-27T04:35:53;157149.28;;;3.98;76.55
41078;BME280;26823;42.662;23.352;2024-01-27T04:38:19;157134.53;;;3.92;76.12
41078;BME280;26823;42.662;23.352;2024-01-27T04:40:44;157164.03;;;4.03;75.81
41078;BME280;26823;42.662;23.352;2024-01-27T04:43:14;157113.06;;;3.84;76.50
41078;BME280;26823;42.662;23.352;2024-01-27T04:45:40;157160.03;;;4.02;77.20
41078;BME280;26823;42.662;23.352;2024-01-27T04:48:05;157154.66;;;4.00;77.50
41078;BME280;26823;42.662;23.352;2024-01-27T04:50:31;157127.84;;;3.89;77.97
41078;BME280;26823;42.662;23.352;2024-01-27T04:52:56;157147.94;;;3.97;77.96
41078;BME280;26823;42.662;23.352;2024-01-27T04:55:22;157113.06;;;3.84;77.96
41078;BME280;26823;42.662;23.352;2024-01-27T04:57:47;157141.25;;;3.95;78.69
41078;BME280;26823;42.662;23.352;2024-01-27T05:00:13;157145.25;;;3.96;78.98
41078;BME280;26823;42.662;23.352;2024-01-27T05:02:40;157110.41;;;3.83;79.49
41078;BME280;26823;42.662;23.352;2024-01-27T05:05:06;157147.94;;;3.97;79.36
41078;BME280;26823;42.662;23.352;2024-01-27T05:07:32;157153.34;;;3.99;79.46
41078;BME280;26823;42.662;23.352;2024-01-27T05:09:57;157122.47;;;3.87;80.21
41078;BME280;26823;42.662;23.352;2024-01-27T05:12:23;157125.16;;;3.88;81.29
41078;BME280;26823;42.662;23.352;2024-01-27T05:14:48;157090.31;;;3.75;82.34
41078;BME280;26823;42.662;23.352;2024-01-27T05:17:14;157105.03;;;3.81;82.25
41078;BME280;26823;42.662;23.352;2024-01-27T05:19:39;157123.81;;;3.88;83.03
41078;BME280;26823;42.662;23.352;2024-01-27T05:22:04;157141.25;;;3.95;83.49
41078;BME280;26823;42.662;23.352;2024-01-27T05:24:30;157160.03;;;4.02;84.45
41078;BME280;26823;42.662;23.352;2024-01-27T05:26:56;157129.16;;;3.90;84.62
41078;BME280;26823;42.662;23.352;2024-01-27T05:29:21;157146.63;;;3.97;85.56
41078;BME280;26823;42.662;23.352;2024-01-27T05:31:47;157147.94;;;3.97;85.28
41078;BME280;26823;42.662;23.352;2024-01-27T05:34:13;157135.88;;;3.92;86.86
41078;BME280;26823;42.662;23.352;2024-01-27T05:36:38;157141.25;;;3.95;86.36
41078;BME280;26823;42.662;23.352;2024-01-27T05:39:04;157123.81;;;3.88;87.56
41078;BME280;26823;42.662;23.352;2024-01-27T05:41:30;157080.91;;;3.71;88.09
41078;BME280;26823;42.662;23.352;2024-01-27T05:43:56;157143.94;;;3.96;88.14
41078;BME280;26823;42.662;23.352;2024-01-27T05:46:25;157154.66;;;4.00;87.79
41078;BME280;26823;42.662;23.352;2024-01-27T05:48:51;157174.75;;;4.07;87.99
41078;BME280;26823;42.662;23.352;2024-01-27T05:51:22;157174.75;;;4.07;88.32
41078;BME280;26823;42.662;23.352;2024-01-27T05:53:48;157151.97;;;3.99;89.24
41078;BME280;26823;42.662;23.352;2024-01-27T05:56:14;157130.53;;;3.90;89.22
41078;BME280;26823;42.662;23.352;2024-01-27T05:58:39;157141.25;;;3.95;89.95
41078;BME280;26823;42.662;23.352;2024-01-27T06:01:05;157141.25;;;3.95;89.35
41078;BME280;26823;42.662;23.352;2024-01-27T06:03:31;157141.25;;;3.95;89.00
41078;BME280;26823;42.662;23.352;2024-01-27T06:05:57;157141.25;;;3.95;89.24
41078;BME280;26823;42.662;23.352;2024-01-27T06:08:22;157134.53;;;3.92;89.15
41078;BME280;26823;42.662;23.352;2024-01-27T06:10:48;157139.94;;;3.94;89.20
41078;BME280;26823;42.662;23.352;2024-01-27T06:13:13;157127.84;;;3.89;89.66
41078;BME280;26823;42.662;23.352;2024-01-27T06:15:39;157118.44;;;3.86;89.79
41078;BME280;26823;42.662;23.352;2024-01-27T06:18:04;157118.44;;;3.86;90.00
41078;BME280;26823;42.662;23.352;2024-01-27T06:20:30;157101.03;;;3.79;90.13
41078;BME280;26823;42.662;23.352;2024-01-27T06:22:55;157083.59;;;3.72;90.85
41078;BME280;26823;42.662;23.352;2024-01-27T06:25:21;157064.81;;;3.65;90.37
41078;BME280;26823;42.662;23.352;2024-01-27T06:27:47;157039.34;;;3.55;91.00
41078;BME280;26823;42.662;23.352;2024-01-27T06:30:14;156995.13;;;3.38;90.83
41078;BME280;26823;42.662;23.352;2024-01-27T06:32:39;157027.25;;;3.51;90.78
41078;BME280;26823;42.662;23.352;2024-01-27T06:35:05;157031.31;;;3.52;90.87
41078;BME280;26823;42.662;23.352;2024-01-27T06:37:30;157015.22;;;3.46;91.77
41078;BME280;26823;42.662;23.352;2024-01-27T06:39:56;157001.81;;;3.41;92.27
41078;BME280;26823;42.662;23.352;2024-01-27T06:42:22;156984.34;;;3.34;93.08
41078;BME280;26823;42.662;23.352;2024-01-27T06:44:47;157007.16;;;3.43;93.30
41078;BME280;26823;42.662;23.352;2024-01-27T06:47:13;157012.53;;;3.45;94.53
41078;BME280;26823;42.662;23.352;2024-01-27T06:49:38;157042.03;;;3.56;94.31
41078;BME280;26823;42.662;23.352;2024-01-27T06:52:04;157056.75;;;3.62;93.75
41078;BME280;26823;42.662;23.352;2024-01-27T06:54:30;157067.50;;;3.66;92.85
41078;BME280;26823;42.662;23.352;2024-01-27T06:56:55;157176.13;;;4.08;91.35
41078;BME280;26823;42.662;23.352;2024-01-27T06:59:20;157165.38;;;4.04;90.42
41078;BME280;26823;42.662;23.352;2024-01-27T07:01:47;157173.44;;;4.07;89.84
41078;BME280;26823;42.662;23.352;2024-01-27T07:04:14;157174.75;;;4.07;89.14
41078;BME280;26823;42.662;23.352;2024-01-27T07:06:39;157185.47;;;4.12;88.50
41078;BME280;26823;42.662;23.352;2024-01-27T07:09:05;157178.78;;;4.09;87.76
41078;BME280;26823;42.662;23.352;2024-01-27T07:11:32;157180.16;;;4.10;86.40
41078;BME280;26823;42.662;23.352;2024-01-27T07:13:57;157236.47;;;4.31;85.02
41078;BME280;26823;42.662;23.352;2024-01-27T07:16:24;157248.56;;;4.36;83.93
41078;BME280;26823;42.662;23.352;2024-01-27T07:18:50;157278.09;;;4.47;83.28
41078;BME280;26823;42.662;23.352;2024-01-27T07:21:15;157299.53;;;4.55;83.51
41078;BME280;26823;42.662;23.352;2024-01-27T07:23:44;157286.13;;;4.50;81.92
41078;BME280;26823;42.662;23.352;2024-01-27T07:26:10;157291.50;;;4.52;81.85
41078;BME280;26823;42.662;23.352;2024-01-27T07:28:36;157291.50;;;4.52;81.63
41078;BME280;26823;42.662;23.352;2024-01-27T07:31:02;157276.72;;;4.47;81.79
41078;BME280;26823;42.662;23.352;2024-01-27T07:33:27;157290.13;;;4.52;81.25
41078;BME280;26823;42.662;23.352;2024-01-27T07:35:53;157283.41;;;4.49;80.64
41078;BME280;26823;42.662;23.352;2024-01-27T07:38:18;157295.50;;;4.54;80.51
41078;BME280;26823;42.662;23.352;2024-01-27T07:40:44;157288.81;;;4.51;79.76
41078;BME280;26823;42.662;23.352;2024-01-27T07:43:09;157310.25;;;4.60;79.74
41078;BME280;26823;42.662;23.352;2024-01-27T07:45:34;157312.94;;;4.61;79.54
41078;BME280;26823;42.662;23.352;2024-01-27T07:48:00;157311.63;;;4.60;78.65
41078;BME280;26823;42.662;23.352;2024-01-27T07:50:26;157296.84;;;4.54;77.91
41078;BME280;26823;42.662;23.352;2024-01-27T07:52:52;157279.41;;;4.48;77.21
41078;BME280;26823;42.662;23.352;2024-01-27T07:55:17;157284.78;;;4.50;76.92
41078;BME280;26823;42.662;23.352;2024-01-27T07:57:44;157260.59;;;4.40;77.14
41078;BME280;26823;42.662;23.352;2024-01-27T08:00:09;157256.59;;;4.39;76.96
41078;BME280;26823;42.662;23.352;2024-01-27T08:02:35;157248.56;;;4.36;76.94
41078;BME280;26823;42.662;23.352;2024-01-27T08:05:02;157249.88;;;4.36;75.89
41078;BME280;26823;42.662;23.352;2024-01-27T08:07:29;157245.88;;;4.35;75.81
41078;BME280;26823;42.662;23.352;2024-01-27T08:09:54;157270.00;;;4.44;75.44
41078;BME280;26823;42.662;23.352;2024-01-27T08:12:22;157263.31;;;4.41;75.69
41078;BME280;26823;42.662;23.352;2024-01-27T08:14:47;157248.56;;;4.36;74.99
41078;BME280;26823;42.662;23.352;2024-01-27T08:17:13;157257.91;;;4.39;75.50
41078;BME280;26823;42.662;23.352;2024-01-27T08:19:38;157253.91;;;4.38;76.06
41078;BME280;26823;42.662;23.352;2024-01-27T08:22:04;157292.81;;;4.53;76.68
41078;BME280;26823;42.662;23.352;2024-01-27T08:24:29;157312.94;;;4.61;76.34
41078;BME280;26823;42.662;23.352;2024-01-27T08:26:55;157323.66;;;4.65;75.18
41078;BME280;26823;42.662;23.352;2024-01-27T08:29:20;157355.88;;;4.77;74.02
41078;BME280;26823;42.662;23.352;2024-01-27T08:31:46;157385.41;;;4.88;73.09
41078;BME280;26823;42.662;23.352;2024-01-27T08:34:11;157390.78;;;4.90;72.28
41078;BME280;26823;42.662;23.352;2024-01-27T08:36:39;157424.34;;;5.03;70.82
41078;BME280;26823;42.662;23.352;2024-01-27T08:39:05;157440.44;;;5.10;70.01
41078;BME280;26823;42.662;23.352;2024-01-27T08:41:33;157508.91;;;5.36;68.86
41078;BME280;26823;42.662;23.352;2024-01-27T08:43:59;157568.00;;;5.59;68.17
41078;BME280;26823;42.662;23.352;2024-01-27T08:46:24;157675.44;;;6.00;66.02
41078;BME280;26823;42.662;23.352;2024-01-27T08:48:50;157741.28;;;6.25;65.59
41078;BME280;26823;42.662;23.352;2024-01-27T08:51:15;157819.22;;;6.55;64.50
41078;BME280;26823;42.662;23.352;2024-01-27T08:53:43;157903.84;;;6.88;64.75
41078;BME280;26823;42.662;23.352;2024-01-27T08:56:15;157919.97;;;6.94;61.26
41078;BME280;26823;42.662;23.352;2024-01-27T08:58:41;157921.34;;;6.94;61.78
41078;BME280;26823;42.662;23.352;2024-01-27T09:01:07;157938.81;;;7.01;61.64
41078;BME280;26823;42.662;23.352;2024-01-27T09:03:35;158018.13;;;7.31;63.58
41078;BME280;26823;42.662;23.352;2024-01-27T09:06:00;158070.56;;;7.51;60.25
41078;BME280;26823;42.662;23.352;2024-01-27T09:08:26;158209.06;;;8.05;58.31
41078;BME280;26823;42.662;23.352;2024-01-27T09:10:51;158354.41;;;8.60;55.45
41078;BME280;26823;42.662;23.352;2024-01-27T09:13:16;158471.47;;;9.05;53.02
41078;BME280;26823;42.662;23.352;2024-01-27T09:15:42;158638.44;;;9.69;51.20
41078;BME280;26823;42.662;23.352;2024-01-27T09:18:07;158750.19;;;10.12;48.78
41078;BME280;26823;42.662;23.352;2024-01-27T09:20:33;158725.97;;;10.03;47.47
41078;BME280;26823;42.662;23.352;2024-01-27T09:22:58;158713.81;;;9.98;47.79
41078;BME280;26823;42.662;23.352;2024-01-27T09:25:24;158559.00;;;9.39;49.73
41078;BME280;26823;42.662;23.352;2024-01-27T09:27:53;158441.88;;;8.94;50.96
41078;BME280;26823;42.662;23.352;2024-01-27T09:30:18;158486.31;;;9.11;51.23
41078;BME280;26823;42.662;23.352;2024-01-27T09:32:44;158429.78;;;8.89;51.72
41078;BME280;26823;42.662;23.352;2024-01-27T09:35:09;158440.53;;;8.93;53.51
41078;BME280;26823;42.662;23.352;2024-01-27T09:37:35;158429.78;;;8.89;51.06
41078;BME280;26823;42.662;23.352;2024-01-27T09:40:00;158468.78;;;9.04;50.44
41078;BME280;26823;42.662;23.352;2024-01-27T09:42:28;158410.94;;;8.82;51.02
41078;BME280;26823;42.662;23.352;2024-01-27T09:44:56;158382.66;;;8.71;51.55
41078;BME280;26823;42.662;23.352;2024-01-27T09:47:22;158472.84;;;9.06;52.05
41078;BME280;26823;42.662;23.352;2024-01-27T09:49:49;158456.69;;;9.00;51.76
41078;BME280;26823;42.662;23.352;2024-01-27T09:52:15;158379.94;;;8.70;51.90
41078;BME280;26823;42.662;23.352;2024-01-27T09:54:40;158338.28;;;8.54;51.83
41078;BME280;26823;42.662;23.352;2024-01-27T09:57:10;158265.56;;;8.26;53.51
41078;BME280;26823;42.662;23.352;2024-01-27T09:59:40;158187.53;;;7.96;54.88
41078;BME280;26823;42.662;23.352;2024-01-27T10:02:11;158143.16;;;7.79;55.43
41078;BME280;26823;42.662;23.352;2024-01-27T10:04:38;158027.53;;;7.35;56.87
41078;BME280;26823;42.662;23.352;2024-01-27T10:07:04;157969.69;;;7.13;58.13
41078;BME280;26823;42.662;23.352;2024-01-27T10:09:29;157917.28;;;6.93;58.07
41078;BME280;26823;42.662;23.352;2024-01-27T10:11:55;157894.44;;;6.84;59.73
41078;BME280;26823;42.662;23.352;2024-01-27T10:14:21;157850.09;;;6.67;59.21
41078;BME280;26823;42.662;23.352;2024-01-27T10:16:47;157762.78;;;6.33;60.44
41078;BME280;26823;42.662;23.352;2024-01-27T10:19:19;157738.56;;;6.24;61.91
41078;BME280;26823;42.662;23.352;2024-01-27T10:21:45;157710.41;;;6.13;63.15
41078;BME280;26823;42.662;23.352;2024-01-27T10:24:11;157686.19;;;6.04;63.18
41078;BME280;26823;42.662;23.352;2024-01-27T10:26:37;157648.53;;;5.90;62.90
41078;BME280;26823;42.662;23.352;2024-01-27T10:29:03;157602.88;;;5.72;63.46
41078;BME280;26823;42.662;23.352;2024-01-27T10:31:30;157559.91;;;5.55;65.39
41078;BME280;26823;42.662;23.352;2024-01-27T10:33:56;157545.16;;;5.50;65.46
41078;BME280;26823;42.662;23.352;2024-01-27T10:36:23;157494.13;;;5.30;65.59
41078;BME280;26823;42.662;23.352;2024-01-27T10:38:48;157468.59;;;5.20;66.65
41078;BME280;26823;42.662;23.352;2024-01-27T10:41:24;157488.78;;;5.28;67.30
41078;BME280;26823;42.662;23.352;2024-01-27T10:43:53;157471.31;;;5.21;67.41
41078;BME280;26823;42.662;23.352;2024-01-27T10:46:21;157405.53;;;4.96;66.87
41078;BME280;26823;42.662;23.352;2024-01-27T10:48:51;157424.34;;;5.03;67.37
41078;BME280;26823;42.662;23.352;2024-01-27T10:51:28;157463.28;;;5.18;67.76
41078;BME280;26823;42.662;23.352;2024-01-27T10:54:01;157465.97;;;5.19;67.21
41078;BME280;26823;42.662;23.352;2024-01-27T10:56:27;157392.13;;;4.91;67.21
41078;BME280;26823;42.662;23.352;2024-01-27T10:58:57;157444.47;;;5.11;67.43
41078;BME280;26823;42.662;23.352;2024-01-27T11:01:24;157452.53;;;5.14;67.74
41078;BME280;26823;42.662;23.352;2024-01-27T11:03:52;157385.41;;;4.88;67.48
41078;BME280;26823;42.662;23.352;2024-01-27T11:06:21;157418.94;;;5.01;68.46
41078;BME280;26823;42.662;23.352;2024-01-27T11:08:49;157400.19;;;4.94;69.64
41078;BME280;26823;42.662;23.352;2024-01-27T11:11:15;157394.81;;;4.92;69.78
41078;BME280;26823;42.662;23.352;2024-01-27T11:13:40;157385.41;;;4.88;69.89
41078;BME280;26823;42.662;23.352;2024-01-27T11:16:18;157349.16;;;4.74;70.67
41078;BME280;26823;42.662;23.352;2024-01-27T11:18:44;157358.56;;;4.78;70.33
41078;BME280;26823;42.662;23.352;2024-01-27T11:21:17;157353.19;;;4.76;71.47
41078;BME280;26823;42.662;23.352;2024-01-27T11:23:42;157333.06;;;4.68;71.40
41078;BME280;26823;42.662;23.352;2024-01-27T11:26:09;157338.44;;;4.70;71.06
41078;BME280;26823;42.662;23.352;2024-01-27T11:28:35;157380.06;;;4.86;71.50
41078;BME280;26823;42.662;23.352;2024-01-27T11:31:06;157342.47;;;4.72;70.57
41078;BME280;26823;42.662;23.352;2024-01-27T11:33:31;157361.25;;;4.79;71.14
41078;BME280;26823;42.662;23.352;2024-01-27T11:36:04;157353.19;;;4.76;71.39
41078;BME280;26823;42.662;23.352;2024-01-27T11:38:33;157303.53;;;4.57;71.62
41078;BME280;26823;42.662;23.352;2024-01-27T11:41:01;157308.94;;;4.59;71.97
41078;BME280;26823;42.662;23.352;2024-01-27T11:43:27;157267.31;;;4.43;72.26
41078;BME280;26823;42.662;23.352;2024-01-27T11:46:00;157259.28;;;4.40;72.67
41078;BME280;26823;42.662;23.352;2024-01-27T11:48:26;157264.63;;;4.42;72.90
41078;BME280;26823;42.662;23.352;2024-01-27T11:51:10;157251.22;;;4.37;73.51
41078;BME280;26823;42.662;23.352;2024-01-27T11:53:35;157272.69;;;4.45;72.85
41078;BME280;26823;42.662;23.352;2024-01-27T11:56:03;157215.00;;;4.23;71.82
41078;BME280;26823;42.662;23.352;2024-01-27T11:58:28;157212.34;;;4.22;72.06
41078;BME280;26823;42.662;23.352;2024-01-27T12:00:56;157198.94;;;4.17;71.64
41078;BME280;26823;42.662;23.352;2024-01-27T12:03:21;157251.22;;;4.37;72.65
41078;BME280;26823;42.662;23.352;2024-01-27T12:05:47;157255.28;;;4.38;71.19
41078;BME280;26823;42.662;23.352;2024-01-27T12:08:12;157252.59;;;4.37;70.34
41078;BME280;26823;42.662;23.352;2024-01-27T12:10:38;157233.78;;;4.30;70.12
41078;BME280;26823;42.662;23.352;2024-01-27T12:13:03;157267.31;;;4.43;70.17
41078;BME280;26823;42.662;23.352;2024-01-27T12:15:29;157327.72;;;4.66;70.15
41078;BME280;26823;42.662;23.352;2024-01-27T12:17:55;157378.69;;;4.86;69.11
41078;BME280;26823;42.662;23.352;2024-01-27T12:20:22;157451.16;;;5.14;68.12
41078;BME280;26823;42.662;23.352;2024-01-27T12:22:48;157623.00;;;5.80;65.30
41078;BME280;26823;42.662;23.352;2024-01-27T12:25:16;157721.13;;;6.17;62.25
41078;BME280;26823;42.662;23.352;2024-01-27T12:27:42;157795.00;;;6.46;60.94
41078;BME280;26823;42.662;23.352;2024-01-27T12:30:08;157930.72;;;6.98;58.64
41078;BME280;26823;42.662;23.352;2024-01-27T12:32:34;158090.72;;;7.59;56.06
41078;BME280;26823;42.662;23.352;2024-01-27T12:35:05;158128.34;;;7.74;55.03
41078;BME280;26823;42.662;23.352;2024-01-27T12:37:30;158179.47;;;7.93;54.38
41078;BME280;26823;42.662;23.352;2024-01-27T12:39:55;158229.25;;;8.12;52.74
41078;BME280;26823;42.662;23.352;2024-01-27T12:42:21;158291.13;;;8.36;52.17
41078;BME280;26823;42.662;23.352;2024-01-27T12:44:47;158287.06;;;8.35;50.87